Time;durP1;ratioP1;P1;durP2;ratioP2;P2;SDS_P1;SDS_P2;PMS_P1;PMS_P2;Temp;Humidity;BMP_temperature;BMP_pressure;BME280_temperature;BME280_humidity;BME280_pressure;Samples;Min_cycle;Max_cycle;Signal;HPM_P1;HPM_P2
2022/12/22 03:27:35;;;;;;;1.30;1.20;;;13.10;76.90;;;;;;5073912;28;20158;-55
2022/12/22 03:30:03;;;;;;;1.17;1.08;;;13.10;76.90;;;;;;5073088;28;20048;-56
2022/12/22 03:32:29;;;;;;;1.92;1.23;;;13.10;76.90;;;;;;5070105;28;20123;-53
2022/12/22 03:35:00;;;;;;;1.23;1.13;;;13.10;77.00;;;;;;5057539;28;20132;-56
2022/12/22 03:37:30;;;;;;;2.38;0.98;;;13.10;77.10;;;;;;5086466;28;20447;-55
2022/12/22 03:39:56;;;;;;;5.90;1.10;;;13.10;77.00;;;;;;5090243;28;20622;-56
2022/12/22 03:48:03;;;;;;;3.33;1.02;;;13.10;77.00;;;;;;5082630;28;20438;-56
2022/12/22 03:50:30;;;;;;;1.00;0.93;;;13.10;77.00;;;;;;5087602;28;20052;-56
2022/12/22 03:52:57;;;;;;;2.10;1.05;;;13.10;77.10;;;;;;5059569;28;20091;-56
2022/12/22 03:55:24;;;;;;;2.08;0.90;;;13.10;77.20;;;;;;5087512;28;20028;-56
2022/12/22 03:57:53;;;;;;;1.08;0.98;;;13.10;77.10;;;;;;5063173;28;20063;-56
2022/12/22 04:00:25;;;;;;;1.10;0.75;;;13.10;77.10;;;;;;5065547;28;20493;-56
2022/12/22 04:02:56;;;;;;;1.33;0.90;;;13.10;77.10;;;;;;5076216;28;20044;-56
2022/12/22 04:05:24;;;;;;;1.00;0.60;;;13.20;77.20;;;;;;5087967;28;20400;-56
2022/12/22 04:07:51;;;;;;;0.85;0.73;;;13.10;77.10;;;;;;5073765;28;21054;-56
2022/12/22 04:13:12;;;;;;;1.27;0.80;;;13.10;77.20;;;;;;5079509;28;20051;-56
2022/12/22 04:15:39;;;;;;;1.10;0.90;;;13.10;77.10;;;;;;5083965;28;20433;-56
2022/12/22 04:18:06;;;;;;;1.83;0.93;;;13.10;77.20;;;;;;5068211;28;20052;-57
2022/12/22 04:20:35;;;;;;;1.08;0.93;;;13.10;77.20;;;;;;5078615;28;20119;-56
2022/12/22 04:23:02;;;;;;;0.90;0.90;;;13.10;77.40;;;;;;5083834;28;20098;-56
2022/12/22 04:25:33;;;;;;;1.27;0.80;;;13.10;77.40;;;;;;5077795;28;20254;-56
2022/12/22 04:28:02;;;;;;;1.00;0.85;;;13.20;77.40;;;;;;5069999;28;20131;-56
2022/12/22 04:30:31;;;;;;;1.23;1.13;;;13.20;77.30;;;;;;5059300;28;20071;-56
2022/12/22 04:32:58;;;;;;;1.42;0.70;;;13.10;77.20;;;;;;5087576;28;20294;-56
2022/12/22 04:35:25;;;;;;;1.00;0.90;;;13.20;77.30;;;;;;5083374;28;20039;-56
2022/12/22 04:37:54;;;;;;;1.15;0.98;;;13.10;77.40;;;;;;5090523;28;20082;-56
2022/12/22 04:40:20;;;;;;;1.27;1.17;;;13.10;77.30;;;;;;5085869;28;20064;-56
2022/12/22 04:42:47;;;;;;;1.25;1.00;;;13.20;77.40;;;;;;5088071;28;20496;-56
2022/12/22 04:45:16;;;;;;;2.85;1.30;;;13.20;77.30;;;;;;5093094;22;20127;-53
2022/12/22 04:47:53;;;;;;;1.25;1.15;;;13.10;77.30;;;;;;5073549;28;20175;-58
2022/12/22 04:50:21;;;;;;;1.50;1.40;;;13.20;77.30;;;;;;5071249;28;20036;-55
2022/12/22 04:52:48;;;;;;;1.30;1.20;;;13.20;77.30;;;;;;5077451;28;20036;-55
2022/12/22 04:55:15;;;;;;;1.50;1.40;;;13.10;77.30;;;;;;5071278;28;20044;-57
2022/12/22 04:57:44;;;;;;;2.53;1.27;;;13.10;77.30;;;;;;5059566;28;20040;-56
2022/12/22 05:00:11;;;;;;;5.20;2.42;;;13.10;77.30;;;;;;5050644;28;20072;-57
2022/12/22 05:02:40;;;;;;;1.85;1.75;;;13.10;77.20;;;;;;5042180;28;20056;-56
2022/12/22 05:05:15;;;;;;;2.38;1.58;;;13.10;77.30;;;;;;5068653;28;20041;-57
2022/12/22 05:07:42;;;;;;;1.75;1.65;;;13.10;78.00;;;;;;5055596;28;20075;-55
2022/12/22 05:10:10;;;;;;;3.42;2.17;;;13.10;77.40;;;;;;5054677;28;20553;-57
2022/12/22 05:12:54;;;;;;;7.75;3.10;;;13.10;77.40;;;;;;5066095;28;20037;-54
2022/12/22 05:15:30;;;;;;;4.07;2.20;;;13.00;77.30;;;;;;5051188;28;20128;-56
2022/12/22 05:18:02;;;;;;;2.35;1.77;;;13.10;77.30;;;;;;5048392;28;20045;-56
2022/12/22 05:20:29;;;;;;;;;;;13.00;77.20;;;;;;5047396;28;20065;-56
2022/12/22 05:22:59;;;;;;;4.18;1.73;;;13.10;77.50;;;;;;5042093;28;19960;-57
2022/12/22 05:25:27;;;;;;;1.50;1.42;;;13.00;76.80;;;;;;5040034;28;20119;-53
2022/12/22 05:28:03;;;;;;;1.73;1.63;;;13.00;76.90;;;;;;5044338;28;20056;-56
2022/12/22 05:30:32;;;;;;;2.38;2.17;;;13.00;77.10;;;;;;5044333;28;20124;-56
2022/12/22 05:33:04;;;;;;;2.70;2.40;;;13.00;77.20;;;;;;5040516;28;20045;-57
2022/12/22 05:35:30;;;;;;;2.22;1.95;;;12.90;77.20;;;;;;5048737;28;20127;-55
2022/12/22 05:37:57;;;;;;;2.72;2.53;;;12.90;77.20;;;;;;5069489;28;20140;-58
2022/12/22 05:40:24;;;;;;;2.08;1.95;;;12.90;77.20;;;;;;5070876;28;20046;-55
2022/12/22 05:42:55;;;;;;;2.28;2.08;;;12.90;77.30;;;;;;5032187;28;20049;-57
2022/12/22 05:45:24;;;;;;;1.95;1.85;;;12.90;77.30;;;;;;5056901;28;20047;-58
2022/12/22 05:47:55;;;;;;;2.10;1.95;;;12.90;77.40;;;;;;5047491;28;20056;-58
2022/12/22 05:50:24;;;;;;;2.45;2.25;;;13.00;77.40;;;;;;5070152;28;20071;-57
2022/12/22 05:52:58;;;;;;;1.80;1.70;;;12.90;77.30;;;;;;5069787;28;20577;-57
2022/12/22 05:55:25;;;;;;;2.28;2.08;;;12.90;77.20;;;;;;5055280;28;20040;-58
2022/12/22 05:57:52;;;;;;;2.78;2.03;;;12.90;77.10;;;;;;5057226;28;20045;-55
2022/12/22 06:00:23;;;;;;;1.88;1.77;;;12.90;77.00;;;;;;5064784;28;20590;-57
2022/12/22 06:02:49;;;;;;;3.17;1.40;;;12.90;76.90;;;;;;5042355;28;20049;-59
2022/12/22 06:05:21;;;;;;;1.30;1.20;;;12.90;76.80;;;;;;5043699;28;20098;-58
2022/12/22 06:07:48;;;;;;;3.08;1.23;;;12.90;76.70;;;;;;5051969;28;20048;-56
2022/12/22 06:10:15;;;;;;;1.65;0.95;;;12.90;76.60;;;;;;5066635;28;20051;-58
2022/12/22 06:12:46;;;;;;;1.60;1.50;;;12.80;76.40;;;;;;5063821;28;20512;-53
2022/12/22 06:15:20;;;;;;;1.60;1.50;;;12.90;76.60;;;;;;5048128;28;20072;-58
2022/12/22 06:17:49;;;;;;;1.17;1.08;;;12.90;76.80;;;;;;5047390;28;20037;-58
2022/12/22 06:20:22;;;;;;;1.42;1.33;;;12.80;76.80;;;;;;5049881;28;20045;-58
2022/12/22 06:22:51;;;;;;;1.88;1.15;;;12.80;76.80;;;;;;5060688;28;20120;-54
2022/12/22 06:25:18;;;;;;;1.23;1.20;;;12.80;76.80;;;;;;5062173;28;20072;-58
2022/12/22 06:27:48;;;;;;;3.28;2.75;;;12.80;76.80;;;;;;5069262;28;20044;-57
2022/12/22 06:30:17;;;;;;;5.65;4.18;;;12.80;76.90;;;;;;5070418;28;20463;-58
2022/12/22 06:32:44;;;;;;;2.83;2.63;;;12.80;77.10;;;;;;5064128;28;20051;-57
2022/12/22 06:35:11;;;;;;;4.53;3.67;;;12.80;77.10;;;;;;5060140;28;20044;-57
2022/12/22 06:37:37;;;;;;;3.90;3.28;;;12.80;77.40;;;;;;5068655;28;20044;-57
2022/12/22 06:40:05;;;;;;;2.95;2.22;;;12.80;77.70;;;;;;5068820;28;20047;-55
2022/12/22 06:45:22;;;;;;;3.85;2.67;;;12.90;78.20;;;;;;5063491;28;20460;-58
2022/12/22 06:47:52;;;;;;;3.72;3.40;;;12.90;78.50;;;;;;5043393;28;20045;-57
2022/12/22 06:50:22;;;;;;;3.83;3.53;;;12.90;78.70;;;;;;5037775;28;20059;-57
2022/12/22 06:52:55;;;;;;;4.10;3.80;;;13.00;78.80;;;;;;5064997;28;20120;-59
2022/12/22 06:55:26;;;;;;;4.18;3.88;;;13.10;78.80;;;;;;5051972;28;20036;-55
2022/12/22 06:57:56;;;;;;;3.97;3.65;;;13.10;78.80;;;;;;5059482;28;20037;-58
2022/12/22 07:00:25;;;;;;;5.80;5.30;;;13.10;78.70;;;;;;5046601;28;20056;-57
2022/12/22 07:02:54;;;;;;;5.13;4.60;;;13.10;79.20;;;;;;5044717;28;20045;-57
2022/12/22 07:05:22;;;;;;;6.43;5.82;;;13.10;78.70;;;;;;5060130;28;20051;-57
2022/12/22 07:07:49;;;;;;;7.95;7.07;;;13.10;78.70;;;;;;5053114;28;20111;-57
2022/12/22 07:10:56;;;;;;;7.95;7.15;;;13.20;78.80;;;;;;5065112;28;20120;-56
2022/12/22 07:13:17;;;;;;;8.85;7.32;;;13.20;78.80;;;;;;5048457;28;20045;-57
2022/12/22 07:15:51;;;;;;;9.27;7.03;;;13.20;78.70;;;;;;5032344;28;20049;-57
2022/12/22 07:18:30;;;;;;;7.43;6.77;;;13.20;78.70;;;;;;5052335;28;20048;-58
2022/12/22 07:21:06;;;;;;;7.78;6.97;;;13.20;79.00;;;;;;5053812;28;20673;-57
2022/12/22 07:23:41;;;;;;;7.72;6.38;;;13.20;78.70;;;;;;5060724;28;20051;-57
2022/12/22 07:26:11;;;;;;;6.32;5.47;;;13.20;78.70;;;;;;5056734;28;20049;-58
2022/12/22 07:28:45;;;;;;;7.72;6.00;;;13.20;78.80;;;;;;5062741;28;20048;-58
2022/12/22 07:31:16;;;;;;;6.78;6.07;;;13.20;78.80;;;;;;5071830;28;20386;-57
2022/12/22 07:33:48;;;;;;;7.07;6.38;;;13.20;78.90;;;;;;5071655;28;20076;-57
2022/12/22 07:36:19;;;;;;;7.88;6.70;;;13.20;78.90;;;;;;5037697;28;20048;-56
2022/12/22 07:38:49;;;;;;;7.63;6.38;;;13.20;79.00;;;;;;5048600;28;20128;-56
2022/12/22 07:44:05;;;;;;;9.35;7.20;;;13.20;78.80;;;;;;5045919;28;20136;-55
2022/12/22 07:46:34;;;;;;;7.53;6.70;;;13.20;78.70;;;;;;5051446;28;20143;-57
2022/12/22 07:51:48;;;;;;;8.90;7.57;;;13.20;78.80;;;;;;5042683;28;20477;-58
2022/12/22 07:54:15;;;;;;;8.60;7.70;;;13.20;78.80;;;;;;5057864;28;20033;-57
2022/12/22 07:56:45;;;;;;;11.15;7.70;;;13.20;78.80;;;;;;5032938;28;20062;-57
2022/12/22 07:59:11;;;;;;;9.75;7.97;;;13.20;78.90;;;;;;5055388;28;20536;-57
2022/12/22 08:01:40;;;;;;;9.43;7.32;;;13.20;78.90;;;;;;5070670;28;20041;-58
2022/12/22 08:04:08;;;;;;;9.55;8.23;;;13.20;78.80;;;;;;5072318;28;20040;-58
2022/12/22 08:06:35;;;;;;;9.90;7.70;;;13.20;78.90;;;;;;5044404;28;20045;-57
2022/12/22 08:09:03;;;;;;;10.40;8.48;;;13.20;78.80;;;;;;5055084;28;20452;-58
2022/12/22 08:11:29;;;;;;;10.98;8.60;;;13.20;78.90;;;;;;5066977;28;20086;-57
2022/12/22 08:13:56;;;;;;;9.30;7.88;;;13.20;78.80;;;;;;5050979;28;20041;-58
2022/12/22 08:16:27;;;;;;;11.75;9.55;;;13.20;78.80;;;;;;5040770;28;20044;-56
2022/12/22 08:18:54;;;;;;;13.63;10.20;;;13.20;78.80;;;;;;5054811;28;20041;-58
2022/12/22 08:21:21;;;;;;;12.82;9.85;;;13.20;78.70;;;;;;5034004;28;20398;-57
2022/12/22 08:23:47;;;;;;;14.50;10.43;;;13.20;78.70;;;;;;5051850;28;20068;-57
2022/12/22 08:26:16;;;;;;;14.07;10.48;;;13.20;78.80;;;;;;5048447;28;20129;-54
2022/12/22 08:28:55;;;;;;;13.63;10.63;;;13.20;78.80;;;;;;5059984;28;20075;-58
2022/12/22 08:31:25;;;;;;;16.20;11.10;;;13.20;78.80;;;;;;5044032;28;20515;-57
2022/12/22 08:33:56;;;;;;;14.55;10.23;;;13.20;78.70;;;;;;5051532;28;20047;-57
2022/12/22 08:36:23;;;;;;;17.55;11.88;;;13.20;78.70;;;;;;5042333;28;20111;-58
2022/12/22 08:38:50;;;;;;;15.88;11.00;;;13.20;78.70;;;;;;5065465;28;20431;-58
2022/12/22 08:41:48;;;;;;;17.27;11.20;;;13.20;78.70;;;;;;5064852;28;20112;-57
2022/12/22 08:44:10;;;;;;;13.70;10.63;;;13.20;78.70;;;;;;5043679;28;20136;-55
2022/12/22 08:46:36;;;;;;;15.40;11.30;;;13.20;78.50;;;;;;5041276;28;20044;-56
2022/12/22 08:49:03;;;;;;;16.75;11.10;;;13.20;78.60;;;;;;5071508;28;20040;-58
2022/12/22 08:51:31;;;;;;;16.55;11.35;;;13.20;78.60;;;;;;5041611;28;20053;-59
2022/12/22 08:53:58;;;;;;;18.95;11.68;;;13.20;78.70;;;;;;5047853;28;20132;-57
2022/12/22 08:56:33;;;;;;;16.42;11.63;;;13.20;78.60;;;;;;5062214;28;20056;-57
2022/12/22 08:59:03;;;;;;;14.15;11.02;;;13.20;79.10;;;;;;5066244;28;20496;-59
2022/12/22 09:01:31;;;;;;;14.55;10.82;;;13.30;78.40;;;;;;5043531;28;20110;-57
2022/12/22 09:03:59;;;;;;;15.23;11.57;;;13.20;78.50;;;;;;5052565;28;20500;-58
2022/12/22 09:06:28;;;;;;;15.55;11.60;;;13.30;78.60;;;;;;5052653;28;20465;-57
2022/12/22 09:09:06;;;;;;;16.52;11.98;;;13.30;78.60;;;;;;5071764;28;20049;-58
2022/12/22 09:11:33;;;;;;;18.58;13.55;;;13.30;78.60;;;;;;5060983;28;20082;-58
2022/12/22 09:14:04;;;;;;;17.33;12.18;;;13.30;78.40;;;;;;5054242;28;20719;-58
2022/12/22 09:16:32;;;;;;;15.95;11.82;;;13.40;78.30;;;;;;5070633;28;20094;-57
2022/12/22 09:19:00;;;;;;;17.27;12.65;;;13.40;78.10;;;;;;5064452;28;20037;-58
2022/12/22 09:21:27;;;;;;;17.45;12.18;;;13.40;78.00;;;;;;5036793;28;20099;-57
2022/12/22 09:23:55;;;;;;;17.35;11.85;;;13.40;77.90;;;;;;5060136;28;20044;-58
2022/12/22 09:26:24;;;;;;;18.17;12.55;;;13.50;77.60;;;;;;5030904;28;20508;-57
2022/12/22 09:28:51;;;;;;;18.10;12.88;;;13.50;77.40;;;;;;5021714;28;20483;-57
2022/12/22 09:31:20;;;;;;;18.85;12.15;;;13.50;77.40;;;;;;5028620;28;20136;-58
2022/12/22 09:33:47;;;;;;;17.67;12.65;;;13.50;77.30;;;;;;5058301;28;20075;-55
2022/12/22 09:36:17;;;;;;;19.10;13.45;;;13.50;77.20;;;;;;5057119;28;20120;-57
2022/12/22 09:38:44;;;;;;;19.35;12.85;;;13.50;77.20;;;;;;5027317;28;20049;-58
2022/12/22 09:41:23;;;;;;;18.75;14.13;;;13.50;77.10;;;;;;5048278;28;20048;-56
2022/12/22 09:43:55;;;;;;;20.15;14.32;;;13.50;77.10;;;;;;5047732;28;20098;-57
2022/12/22 09:46:25;;;;;;;22.80;14.98;;;13.40;76.90;;;;;;5061017;28;20040;-56
2022/12/22 09:48:52;;;;;;;21.48;14.88;;;13.40;77.00;;;;;;5067315;28;20562;-57
2022/12/22 09:51:20;;;;;;;20.65;13.98;;;13.40;77.10;;;;;;5043701;28;20040;-56
2022/12/22 09:53:58;;;;;;;19.75;14.15;;;13.40;77.10;;;;;;5066623;28;20048;-57
2022/12/22 09:56:27;;;;;;;17.13;13.68;;;13.40;77.10;;;;;;5068669;28;20052;-58
2022/12/22 09:58:53;;;;;;;19.42;13.38;;;13.40;77.10;;;;;;5053473;28;20041;-58
2022/12/22 10:02:03;;;;;;;22.02;14.80;;;13.40;77.00;;;;;;5066634;28;20040;-57
2022/12/22 10:04:54;;;;;;;21.60;13.82;;;13.50;77.10;;;;;;5029851;28;20042;-57
2022/12/22 10:07:32;;;;;;;16.95;12.73;;;13.50;76.90;;;;;;5038972;28;20059;-57
2022/12/22 10:10:23;;;;;;;18.52;12.40;;;13.50;76.90;;;;;;5058783;28;20049;-57
2022/12/22 10:12:53;;;;;;;18.25;11.60;;;13.50;76.50;;;;;;5061883;28;20045;-58
2022/12/22 10:15:20;;;;;;;16.42;11.57;;;13.50;76.20;;;;;;5049683;28;20041;-55
2022/12/22 10:17:53;;;;;;;19.40;13.20;;;13.40;75.80;;;;;;5056624;28;20044;-56
2022/12/22 10:20:25;;;;;;;20.63;13.10;;;13.40;75.50;;;;;;5055079;28;20068;-57
2022/12/22 10:23:05;;;;;;;17.67;12.98;;;13.30;75.20;;;;;;5043969;28;20067;-57
2022/12/22 10:25:33;;;;;;;17.10;12.65;;;13.30;75.20;;;;;;5046423;28;20037;-57
2022/12/22 10:28:27;;;;;;;18.98;12.77;;;13.20;75.40;;;;;;5049881;28;20370;-57
2022/12/22 10:31:15;;;;;;;21.63;13.18;;;13.20;75.80;;;;;;5065018;28;20047;-58
2022/12/22 10:33:43;;;;;;;22.25;15.02;;;13.20;75.80;;;;;;5029456;28;20071;-57
2022/12/22 10:36:35;;;;;;;20.63;13.98;;;13.10;75.70;;;;;;5043906;28;20069;-55
2022/12/22 10:39:02;;;;;;;20.15;14.13;;;13.10;75.60;;;;;;5063154;28;20083;-58
2022/12/22 10:41:35;;;;;;;25.83;16.83;;;13.10;75.80;;;;;;5061312;28;20091;-57
2022/12/22 10:44:10;;;;;;;23.08;16.60;;;13.00;75.90;;;;;;5048798;28;20129;-57
2022/12/22 10:46:49;;;;;;;23.27;15.65;;;13.10;75.80;;;;;;5049361;28;20076;-58
2022/12/22 10:49:47;;;;;;;24.98;16.38;;;13.00;75.90;;;;;;5062648;28;20068;-57
2022/12/22 10:52:14;;;;;;;24.40;16.30;;;13.00;76.00;;;;;;5067069;28;20511;-57
2022/12/22 10:54:44;;;;;;;24.13;17.30;;;13.00;76.00;;;;;;5052156;28;20132;-57
2022/12/22 10:57:15;;;;;;;23.42;17.40;;;13.00;75.90;;;;;;5068057;28;20045;-57
2022/12/22 11:00:22;;;;;;;26.40;17.23;;;13.00;75.80;;;;;;5073749;28;20048;-58
2022/12/22 11:02:54;;;;;;;26.10;17.92;;;13.00;75.40;;;;;;5031062;28;20124;-49
2022/12/22 11:05:27;;;;;;;24.02;16.73;;;12.90;75.40;;;;;;5033626;28;20037;-48
2022/12/22 11:07:59;;;;;;;22.30;16.40;;;12.90;75.30;;;;;;5044291;28;20063;-49
2022/12/22 11:10:41;;;;;;;25.15;16.40;;;12.90;75.50;;;;;;5014074;28;20502;-51
2022/12/22 11:13:43;;;;;;;22.38;15.82;;;12.90;75.70;;;;;;5013889;28;20505;-50
2022/12/22 11:16:22;;;;;;;21.67;16.75;;;12.90;75.70;;;;;;5036633;28;20409;-51
2022/12/22 11:19:08;;;;;;;23.80;15.85;;;12.90;75.80;;;;;;5045632;28;20045;-49
2022/12/22 11:22:13;;;;;;;23.48;14.90;;;13.00;75.50;;;;;;5053050;28;20208;-51
2022/12/22 11:24:53;;;;;;;21.98;16.20;;;13.00;75.40;;;;;;5041522;28;20069;-53
2022/12/22 11:27:49;;;;;;;21.73;15.93;;;13.10;75.50;;;;;;5044321;28;20044;-50
2022/12/22 11:30:34;;;;;;;22.88;14.88;;;13.10;75.20;;;;;;5053619;28;20045;-50
2022/12/22 11:33:01;;;;;;;18.50;13.38;;;13.10;75.20;;;;;;5043698;28;20053;-53
2022/12/22 11:35:48;;;;;;;15.27;11.73;;;13.20;74.90;;;;;;5044908;28;20595;-52
2022/12/22 11:38:44;;;;;;;15.77;11.07;;;13.20;73.80;;;;;;5045092;28;20044;-52
2022/12/22 11:41:48;;;;;;;15.02;10.02;;;13.20;73.70;;;;;;5047291;28;20045;-49
2022/12/22 11:44:23;;;;;;;16.02;10.48;;;13.20;73.70;;;;;;5019690;28;20053;-53
2022/12/22 11:47:14;;;;;;;14.57;10.30;;;13.30;74.10;;;;;;5039721;28;20432;-49
2022/12/22 11:49:46;;;;;;;15.68;10.45;;;13.30;73.80;;;;;;5024344;28;20061;-52
2022/12/22 11:52:21;;;;;;;13.18;10.02;;;13.30;73.80;;;;;;5031591;28;20518;-53
2022/12/22 11:54:57;;;;;;;16.50;10.45;;;13.30;73.80;;;;;;5024460;28;20048;-53
2022/12/22 11:57:50;;;;;;;12.70;8.73;;;13.40;73.70;;;;;;5033229;28;20044;-53
2022/12/22 12:00:18;;;;;;;12.55;8.52;;;13.40;73.30;;;;;;5006696;28;20046;-49
2022/12/22 12:03:29;;;;;;;12.32;8.20;;;13.50;73.10;;;;;;5027473;28;20409;-52
2022/12/22 12:06:25;;;;;;;11.40;8.30;;;13.50;72.10;;;;;;5025538;28;20076;-50
2022/12/22 12:09:18;;;;;;;12.73;8.18;;;13.50;72.10;;;;;;4987520;28;20715;-51
2022/12/22 12:12:07;;;;;;;13.93;9.13;;;13.40;72.60;;;;;;5030894;28;20038;-49
2022/12/22 12:15:07;;;;;;;15.70;9.38;;;13.50;72.40;;;;;;5013693;28;20141;-49
2022/12/22 12:18:11;;;;;;;13.55;9.85;;;13.50;72.10;;;;;;5027422;28;20042;-50
2022/12/22 12:21:09;;;;;;;12.73;9.70;;;13.40;72.20;;;;;;5029946;28;20075;-51
2022/12/22 12:23:54;;;;;;;13.27;9.73;;;13.50;72.20;;;;;;5029966;28;20049;-49
2022/12/22 12:26:30;;;;;;;14.98;9.93;;;13.50;72.20;;;;;;5029783;28;20048;-49
2022/12/22 12:29:16;;;;;;;12.63;9.20;;;13.40;72.30;;;;;;5028268;28;20040;-51
2022/12/22 12:32:10;;;;;;;15.88;9.40;;;13.40;71.80;;;;;;5022788;28;20041;-53
2022/12/22 12:34:43;;;;;;;12.15;8.50;;;13.40;72.00;;;;;;5027653;28;20088;-48
2022/12/22 12:37:32;;;;;;;12.90;9.38;;;13.40;72.10;;;;;;5036500;28;20048;-51
2022/12/22 12:40:07;;;;;;;13.55;9.77;;;13.40;72.10;;;;;;5032195;28;20056;-51
2022/12/22 12:42:40;;;;;;;21.42;9.98;;;13.40;72.10;;;;;;5029723;28;20045;-51
2022/12/22 12:45:38;;;;;;;11.38;8.88;;;13.40;72.10;;;;;;5037299;28;20045;-51
2022/12/22 12:48:20;;;;;;;10.93;8.45;;;13.50;72.00;;;;;;5032654;28;20077;-50
2022/12/22 12:50:51;;;;;;;10.13;7.28;;;13.50;72.00;;;;;;5030560;28;20054;-50
2022/12/22 12:53:19;;;;;;;11.10;7.45;;;13.50;72.30;;;;;;5026532;28;20047;-49
2022/12/22 12:55:50;;;;;;;9.02;6.80;;;13.50;72.10;;;;;;5035788;28;20131;-52
2022/12/22 12:58:38;;;;;;;9.45;6.88;;;13.60;72.00;;;;;;5030636;28;20046;-53
2022/12/22 13:01:10;;;;;;;11.38;7.38;;;13.60;71.40;;;;;;5043958;28;20045;-51
2022/12/22 13:03:39;;;;;;;11.98;8.00;;;13.70;71.80;;;;;;5025540;28;20053;-52
2022/12/22 13:06:44;;;;;;;8.15;6.90;;;13.70;71.60;;;;;;5025567;28;20433;-53
2022/12/22 13:09:28;;;;;;;9.93;6.82;;;13.80;71.40;;;;;;5034442;28;20099;-51
2022/12/22 13:12:38;;;;;;;9.88;7.63;;;13.80;71.80;;;;;;5029641;28;20041;-52
2022/12/22 13:15:30;;;;;;;10.05;7.38;;;13.90;71.20;;;;;;5028570;28;20092;-51
2022/12/22 13:17:58;;;;;;;9.57;7.68;;;14.00;71.00;;;;;;5008265;28;20137;-52
2022/12/22 13:20:33;;;;;;;12.52;9.15;;;14.10;71.50;;;;;;5032983;28;20037;-52
2022/12/22 13:23:08;;;;;;;13.38;9.00;;;14.10;70.80;;;;;;5033074;28;20072;-51
2022/12/22 13:25:57;;;;;;;12.70;8.70;;;14.10;70.80;;;;;;5027763;28;20557;-48
2022/12/22 13:28:26;;;;;;;14.65;7.97;;;14.10;70.20;;;;;;5036360;28;20076;-52
2022/12/22 13:31:05;;;;;;;14.90;9.05;;;14.20;70.70;;;;;;5039769;28;20067;-53
2022/12/22 13:33:38;;;;;;;10.90;8.85;;;14.10;70.30;;;;;;5033504;28;20037;-53
2022/12/22 13:36:12;;;;;;;12.02;8.93;;;14.10;70.60;;;;;;5035510;28;20497;-53
2022/12/22 13:38:38;;;;;;;13.27;9.20;;;14.10;70.80;;;;;;5034535;28;20072;-49
2022/12/22 13:41:18;;;;;;;13.40;9.43;;;14.10;71.00;;;;;;5040039;28;20435;-49
2022/12/22 13:43:57;;;;;;;10.73;8.05;;;14.10;70.50;;;;;;5029407;28;20045;-51
2022/12/22 13:46:25;;;;;;;10.60;8.67;;;14.10;70.90;;;;;;5034815;28;20038;-51
2022/12/22 13:48:55;;;;;;;11.98;7.55;;;14.10;70.80;;;;;;5030401;28;20291;-52
2022/12/22 13:51:32;;;;;;;7.72;6.28;;;14.00;70.50;;;;;;5031487;28;20090;-51
2022/12/22 13:54:07;;;;;;;9.85;5.82;;;14.00;69.90;;;;;;5028946;28;20577;-52
2022/12/22 13:56:45;;;;;;;5.88;4.90;;;14.00;69.80;;;;;;5042669;28;20792;-49
2022/12/22 13:59:34;;;;;;;7.93;4.47;;;13.90;69.20;;;;;;5050545;28;20069;-52
2022/12/22 14:02:10;;;;;;;4.07;3.63;;;13.90;68.60;;;;;;5022723;28;20073;-50
2022/12/22 14:04:39;;;;;;;4.43;3.80;;;13.80;69.00;;;;;;5042979;28;20490;-51
2022/12/22 14:07:18;;;;;;;4.78;4.07;;;13.80;68.90;;;;;;5038928;28;20099;-51
2022/12/22 14:09:49;;;;;;;3.80;3.40;;;13.80;68.70;;;;;;5035505;28;20124;-52
2022/12/22 14:12:23;;;;;;;4.00;3.63;;;13.70;69.10;;;;;;5029012;28;20140;-53
2022/12/22 14:14:52;;;;;;;4.43;3.25;;;13.70;69.10;;;;;;5036382;28;20580;-51
2022/12/22 14:17:34;;;;;;;6.75;4.00;;;13.60;69.20;;;;;;5038806;28;20502;-52
2022/12/22 14:20:18;;;;;;;4.05;3.55;;;13.60;69.00;;;;;;5037375;28;20131;-52
2022/12/22 14:22:53;;;;;;;5.13;3.88;;;13.60;69.30;;;;;;5023218;28;20096;-51
2022/12/22 14:25:40;;;;;;;5.28;3.70;;;13.50;69.40;;;;;;5040576;28;20055;-51
2022/12/22 14:28:19;;;;;;;5.65;4.00;;;13.60;69.20;;;;;;5049716;28;20527;-50
2022/12/22 14:30:56;;;;;;;6.00;3.85;;;13.60;69.50;;;;;;5032989;28;20497;-49
2022/12/22 14:33:25;;;;;;;6.40;4.07;;;13.50;69.90;;;;;;5041850;28;20041;-50
2022/12/22 14:36:15;;;;;;;4.88;3.70;;;13.50;70.10;;;;;;5044887;28;20402;-49
2022/12/22 14:38:57;;;;;;;3.33;3.03;;;13.60;70.00;;;;;;5036221;28;20189;-48
2022/12/22 14:41:50;;;;;;;4.40;3.42;;;13.50;69.90;;;;;;5032689;28;20041;-51
2022/12/22 14:44:19;;;;;;;7.20;3.50;;;13.50;70.20;;;;;;5032451;28;20045;-50
2022/12/22 14:47:10;;;;;;;5.90;4.00;;;13.50;70.20;;;;;;5026695;28;20080;-53
2022/12/22 14:49:58;;;;;;;4.35;3.80;;;13.50;70.00;;;;;;5022604;28;20054;-49
2022/12/22 14:52:49;;;;;;;4.10;3.70;;;13.50;70.00;;;;;;5040084;28;20129;-51
2022/12/22 14:55:24;;;;;;;4.75;3.65;;;13.50;70.10;;;;;;5039357;28;20041;-50
2022/12/22 14:57:58;;;;;;;3.70;3.33;;;13.40;71.10;;;;;;5035771;28;20120;-54
2022/12/22 15:00:30;;;;;;;4.10;3.70;;;13.40;70.60;;;;;;5032906;28;20041;-52
2022/12/22 15:03:01;;;;;;;3.75;3.38;;;13.40;70.70;;;;;;5044973;28;20037;-54
2022/12/22 15:05:37;;;;;;;4.10;3.70;;;13.40;71.00;;;;;;5033014;28;20060;-50
2022/12/22 15:08:06;;;;;;;4.72;3.65;;;13.40;70.90;;;;;;5040136;28;20420;-50
2022/12/22 15:10:40;;;;;;;6.05;3.85;;;13.40;71.10;;;;;;5044921;28;20041;-50
2022/12/22 15:13:21;;;;;;;4.07;3.77;;;13.40;71.20;;;;;;5038440;28;20111;-53
2022/12/22 15:15:51;;;;;;;4.43;4.03;;;13.30;71.30;;;;;;5048160;28;20103;-53
2022/12/22 15:18:26;;;;;;;4.38;3.97;;;13.40;71.50;;;;;;5038805;28;20041;-49
2022/12/22 15:20:55;;;;;;;10.38;4.53;;;13.30;71.80;;;;;;5042276;28;20041;-50
2022/12/22 15:23:22;;;;;;;3.50;3.30;;;13.40;72.00;;;;;;5041420;28;20061;-50
2022/12/22 15:25:49;;;;;;;3.45;3.15;;;13.30;72.00;;;;;;5033156;28;20072;-54
2022/12/22 15:28:15;;;;;;;3.60;3.30;;;13.30;72.10;;;;;;5034683;28;20520;-52
2022/12/22 15:30:42;;;;;;;3.53;3.22;;;13.30;72.20;;;;;;5018089;28;20452;-50
2022/12/22 15:33:15;;;;;;;4.13;3.83;;;13.30;72.40;;;;;;5041853;28;20052;-49
2022/12/22 15:35:43;;;;;;;4.05;3.75;;;13.30;72.60;;;;;;5033492;28;20068;-50
2022/12/22 15:38:19;;;;;;;3.78;3.50;;;13.30;72.60;;;;;;5035548;28;20086;-51
2022/12/22 15:40:46;;;;;;;3.42;3.13;;;13.30;72.80;;;;;;5044746;28;20072;-51
2022/12/22 15:43:13;;;;;;;3.78;3.47;;;13.20;72.80;;;;;;5036190;28;20115;-52
2022/12/22 15:46:03;;;;;;;3.97;3.58;;;13.20;73.00;;;;;;5037028;28;20045;-50
2022/12/22 15:48:35;;;;;;;3.67;3.33;;;13.20;73.10;;;;;;5044512;28;20045;-50
2022/12/22 15:51:03;;;;;;;3.80;3.40;;;13.20;73.90;;;;;;5039059;28;20052;-48
2022/12/22 15:53:31;;;;;;;3.58;3.25;;;13.20;73.30;;;;;;5036381;28;20466;-53
2022/12/22 15:55:59;;;;;;;3.83;3.45;;;13.20;73.50;;;;;;5043485;28;20051;-51
2022/12/22 15:58:31;;;;;;;4.95;3.45;;;13.10;73.50;;;;;;5041547;28;20505;-49
2022/12/22 16:00:58;;;;;;;3.13;2.92;;;13.20;73.70;;;;;;5029693;28;20132;-49
2022/12/22 16:03:25;;;;;;;3.40;3.10;;;13.10;73.70;;;;;;5034802;28;20036;-52
2022/12/22 16:05:53;;;;;;;5.88;3.38;;;13.10;73.90;;;;;;5037775;28;20056;-54
2022/12/22 16:08:26;;;;;;;5.03;3.15;;;13.10;73.90;;;;;;5043067;28;20073;-50
2022/12/22 16:10:52;;;;;;;3.97;2.65;;;13.10;74.00;;;;;;5044506;28;20076;-49
2022/12/22 16:13:24;;;;;;;3.45;2.65;;;13.10;74.10;;;;;;5028756;28;20121;-50
2022/12/22 16:15:50;;;;;;;2.95;2.53;;;13.10;74.30;;;;;;5019917;28;20043;-51
2022/12/22 16:18:17;;;;;;;2.95;2.67;;;13.10;74.40;;;;;;5035528;28;20534;-52
2022/12/22 16:20:50;;;;;;;2.58;2.38;;;13.00;74.50;;;;;;5040923;28;20249;-52
2022/12/22 16:23:21;;;;;;;2.90;2.58;;;13.00;74.60;;;;;;5028455;28;20072;-51
2022/12/22 16:25:49;;;;;;;3.33;2.40;;;13.00;74.80;;;;;;5039802;28;20048;-49
2022/12/22 16:28:23;;;;;;;2.53;2.05;;;13.00;74.80;;;;;;5031961;28;20045;-52
2022/12/22 16:30:51;;;;;;;3.00;2.53;;;13.00;75.00;;;;;;5027817;28;20430;-52
2022/12/22 16:33:18;;;;;;;3.90;2.35;;;13.00;75.10;;;;;;5022835;28;20050;-49
2022/12/22 16:35:45;;;;;;;3.60;2.70;;;13.00;75.30;;;;;;5042985;28;20099;-52
2022/12/22 16:38:12;;;;;;;4.00;2.03;;;13.00;75.40;;;;;;5034841;28;20496;-52
2022/12/22 16:40:47;;;;;;;4.75;2.30;;;13.00;75.50;;;;;;5028837;28;20033;-49
2022/12/22 16:43:21;;;;;;;2.25;2.05;;;13.00;75.60;;;;;;5031254;28;20076;-51
2022/12/22 16:46:12;;;;;;;3.08;2.28;;;13.00;75.70;;;;;;5041845;28;20036;-52
2022/12/22 16:48:46;;;;;;;4.95;2.70;;;13.00;75.80;;;;;;5021914;28;20128;-49
2022/12/22 16:51:21;;;;;;;3.17;2.70;;;13.00;75.80;;;;;;5013610;28;20128;-49
2022/12/22 16:53:48;;;;;;;4.40;2.03;;;13.00;76.00;;;;;;5017349;28;20077;-48
2022/12/22 16:56:20;;;;;;;5.55;2.53;;;13.00;76.00;;;;;;5028280;28;20055;-52
2022/12/22 16:58:47;;;;;;;4.75;2.72;;;13.00;76.30;;;;;;5042223;28;20374;-50